Decoded Metar for KMLF (MILFORD in UT, USA) (IATA:MLF) | Meteo·Mobile Aviation Weather
aviador You're here:

KMLF Decoded Metar

MILFORD in UT, USA
Report Time2018-12-15 18:31:00
UTC Time2018-12-15 18:41:37
Flight Rules vfr VFR
Wind200° at 16 kt
W.Decomp.*RWY 16: 14.5 kt HW 6.8 kt RCW
W.Rank200° ranks 1
Current wind is above 200° avg. (11.9)
Visibility9999 m
Phenomena:N/A
Clouds:N/A
Expected CloudBase > 7,600 ft AGL from Temp-Dew spread
CeilingNone
Temp10°C (ISA +5)
Dew Point-9°C (25% RH)
AAT1.2°C
QNH1023 hPa
Density Alt5,335 ft
Elevation5,033 ft
Report Wrong Elevation
Raw Report
KMLF 151831Z AUTO 20016KT 10SM CLR 10/M09 A3021=

Extra information for KMLF:More info

Metar Taf Metar & Taf Last 4 Metars F.Rules Stats Wind Profile Meteogram Temp Stats Airport Information Weather charts Add Link Nearby VenuesMetar ALERT Operation Metar Decoded Social comments

AIRNAV info for KMLF